sensor_id;sensor_type;location;lat;lon;timestamp;pressure;altitude;pressure_sealevel;temperature;humidity
46129;BME280;31860;45.186;5.790;2023-11-19T00:01:48;99910.97;;;11.28;100.00
46129;BME280;31860;45.186;5.790;2023-11-19T00:04:14;99914.41;;;11.24;100.00
46129;BME280;31860;45.186;5.790;2023-11-19T00:06:39;99915.31;;;11.24;100.00
46129;BME280;31860;45.186;5.790;2023-11-19T00:09:04;99897.84;;;11.22;100.00
46129;BME280;31860;45.186;5.790;2023-11-19T00:11:30;99895.19;;;11.17;100.00
46129;BME280;31860;45.186;5.790;2023-11-19T00:13:56;99900.38;;;11.11;100.00
46129;BME280;31860;45.186;5.790;2023-11-19T00:16:21;99895.16;;;11.11;100.00
46129;BME280;31860;45.186;5.790;2023-11-19T00:18:46;99895.13;;;11.10;100.00
46129;BME280;31860;45.186;5.790;2023-11-19T00:21:11;99887.22;;;11.04;100.00
46129;BME280;31860;45.186;5.790;2023-11-19T00:23:37;99882.00;;;11.05;100.00
46129;BME280;31860;45.186;5.790;2023-11-19T00:26:03;99883.72;;;11.00;100.00
46129;BME280;31860;45.186;5.790;2023-11-19T00:28:31;99887.16;;;10.96;100.00
46129;BME280;31860;45.186;5.790;2023-11-19T00:30:56;99881.94;;;10.95;100.00
46129;BME280;31860;45.186;5.790;2023-11-19T00:33:22;99888.00;;;10.94;100.00
46129;BME280;31860;45.186;5.790;2023-11-19T00:35:47;99893.22;;;10.94;100.00
46129;BME280;31860;45.186;5.790;2023-11-19T00:38:13;99883.63;;;10.93;100.00
46129;BME280;31860;45.186;5.790;2023-11-19T00:40:39;99891.50;;;10.96;100.00
46129;BME280;31860;45.186;5.790;2023-11-19T00:43:06;99891.53;;;10.97;100.00
46129;BME280;31860;45.186;5.790;2023-11-19T00:45:32;99895.88;;;10.95;100.00
46129;BME280;31860;45.186;5.790;2023-11-19T00:47:57;99897.56;;;10.92;100.00
46129;BME280;31860;45.186;5.790;2023-11-19T00:50:24;99889.72;;;10.92;100.00
46129;BME280;31860;45.186;5.790;2023-11-19T00:52:50;99887.16;;;10.95;100.00
46129;BME280;31860;45.186;5.790;2023-11-19T00:55:16;99892.31;;;10.92;100.00
46129;BME280;31860;45.186;5.790;2023-11-19T00:57:42;99894.91;;;10.87;100.00
46129;BME280;31860;45.186;5.790;2023-11-19T01:00:08;99893.13;;;10.80;100.00
46129;BME280;31860;45.186;5.790;2023-11-19T01:02:43;99894.81;;;10.78;100.00
46129;BME280;31860;45.186;5.790;2023-11-19T01:05:08;99882.59;;;10.77;100.00
46129;BME280;31860;45.186;5.790;2023-11-19T01:07:34;99885.19;;;10.74;100.00
46129;BME280;31860;45.186;5.790;2023-11-19T01:09:59;99880.81;;;10.72;100.00
46129;BME280;31860;45.186;5.790;2023-11-19T01:12:24;99873.03;;;10.76;100.00
46129;BME280;31860;45.186;5.790;2023-11-19T01:14:50;99864.38;;;10.80;100.00
46129;BME280;31860;45.186;5.790;2023-11-19T01:17:15;99875.66;;;10.79;100.00
46129;BME280;31860;45.186;5.790;2023-11-19T01:19:41;99873.94;;;10.81;100.00
46129;BME280;31860;45.186;5.790;2023-11-19T01:22:06;99873.94;;;10.83;100.00
46129;BME280;31860;45.186;5.790;2023-11-19T01:24:32;99867.88;;;10.84;100.00
46129;BME280;31860;45.186;5.790;2023-11-19T01:26:57;99856.53;;;10.82;100.00
46129;BME280;31860;45.186;5.790;2023-11-19T01:29:25;99848.66;;;10.79;100.00
46129;BME280;31860;45.186;5.790;2023-11-19T01:31:50;99851.25;;;10.77;100.00
46129;BME280;31860;45.186;5.790;2023-11-19T01:34:18;99846.91;;;10.78;100.00
46129;BME280;31860;45.186;5.790;2023-11-19T01:36:43;99852.13;;;10.76;100.00
46129;BME280;31860;45.186;5.790;2023-11-19T01:39:11;99846.91;;;10.75;100.00
46129;BME280;31860;45.186;5.790;2023-11-19T01:41:37;99854.69;;;10.70;100.00
46129;BME280;31860;45.186;5.790;2023-11-19T01:44:06;99848.50;;;10.64;100.00
46129;BME280;31860;45.186;5.790;2023-11-19T01:46:31;99858.03;;;10.60;100.00
46129;BME280;31860;45.186;5.790;2023-11-19T01:48:58;99845.84;;;10.59;100.00
46129;BME280;31860;45.186;5.790;2023-11-19T01:51:24;99841.50;;;10.60;100.00
46129;BME280;31860;45.186;5.790;2023-11-19T01:53:50;99851.09;;;10.64;100.00
46129;BME280;31860;45.186;5.790;2023-11-19T01:56:15;99839.75;;;10.59;100.00
46129;BME280;31860;45.186;5.790;2023-11-19T01:58:43;99847.56;;;10.57;100.00
46129;BME280;31860;45.186;5.790;2023-11-19T02:01:10;99845.81;;;10.56;100.00
46129;BME280;31860;45.186;5.790;2023-11-19T02:03:37;99852.78;;;10.56;100.00
46129;BME280;31860;45.186;5.790;2023-11-19T02:06:03;99857.13;;;10.57;100.00
46129;BME280;31860;45.186;5.790;2023-11-19T02:08:29;99855.34;;;10.54;100.00
46129;BME280;31860;45.186;5.790;2023-11-19T02:10:54;99852.75;;;10.54;100.00
46129;BME280;31860;45.186;5.790;2023-11-19T02:13:23;99844.06;;;10.52;100.00
46129;BME280;31860;45.186;5.790;2023-11-19T02:15:50;99851.00;;;10.53;100.00
46129;BME280;31860;45.186;5.790;2023-11-19T02:18:26;99853.63;;;10.53;100.00
46129;BME280;31860;45.186;5.790;2023-11-19T02:20:58;99854.53;;;10.57;100.00
46129;BME280;31860;45.186;5.790;2023-11-19T02:23:26;99851.03;;;10.55;100.00
46129;BME280;31860;45.186;5.790;2023-11-19T02:28:24;99857.03;;;10.47;100.00
46129;BME280;31860;45.186;5.790;2023-11-19T02:30:49;99853.53;;;10.45;100.00
46129;BME280;31860;45.186;5.790;2023-11-19T02:33:15;99845.69;;;10.45;100.00
46129;BME280;31860;45.186;5.790;2023-11-19T02:35:40;99852.66;;;10.45;100.00
46129;BME280;31860;45.186;5.790;2023-11-19T02:38:06;99853.47;;;10.41;100.00
46129;BME280;31860;45.186;5.790;2023-11-19T02:40:32;99855.22;;;10.40;100.00
46129;BME280;31860;45.186;5.790;2023-11-19T02:42:57;99853.47;;;10.39;100.00
46129;BME280;31860;45.186;5.790;2023-11-19T02:45:23;99858.69;;;10.41;100.00
46129;BME280;31860;45.186;5.790;2023-11-19T02:47:49;99848.25;;;10.41;100.00
46129;BME280;31860;45.186;5.790;2023-11-19T02:50:15;99851.81;;;10.44;100.00
46129;BME280;31860;45.186;5.790;2023-11-19T02:52:44;99843.09;;;10.45;100.00
46129;BME280;31860;45.186;5.790;2023-11-19T02:55:11;99834.44;;;10.48;100.00
46129;BME280;31860;45.186;5.790;2023-11-19T02:57:40;99831.78;;;10.46;100.00
46129;BME280;31860;45.186;5.790;2023-11-19T03:00:13;99837.03;;;10.48;100.00
46129;BME280;31860;45.186;5.790;2023-11-19T03:02:41;99834.44;;;10.48;100.00
46129;BME280;31860;45.186;5.790;2023-11-19T03:05:12;99839.59;;;10.46;100.00
46129;BME280;31860;45.186;5.790;2023-11-19T03:07:40;99843.09;;;10.47;100.00
46129;BME280;31860;45.186;5.790;2023-11-19T03:10:06;99843.97;;;10.44;100.00
46129;BME280;31860;45.186;5.790;2023-11-19T03:12:31;99840.47;;;10.42;100.00
46129;BME280;31860;45.186;5.790;2023-11-19T03:14:57;99845.69;;;10.42;100.00
46129;BME280;31860;45.186;5.790;2023-11-19T03:17:22;99840.47;;;10.42;100.00
46129;BME280;31860;45.186;5.790;2023-11-19T03:19:49;99844.78;;;10.42;100.00
46129;BME280;31860;45.186;5.790;2023-11-19T03:22:14;99843.00;;;10.36;100.00
46129;BME280;31860;45.186;5.790;2023-11-19T03:24:40;99842.03;;;10.28;100.00
46129;BME280;31860;45.186;5.790;2023-11-19T03:27:05;99844.63;;;10.27;100.00
46129;BME280;31860;45.186;5.790;2023-11-19T03:29:30;99837.69;;;10.27;100.00
46129;BME280;31860;45.186;5.790;2023-11-19T03:31:56;99829.84;;;10.27;100.00
46129;BME280;31860;45.186;5.790;2023-11-19T03:34:21;99822.03;;;10.30;100.00
46129;BME280;31860;45.186;5.790;2023-11-19T03:36:47;99821.13;;;10.28;100.00
46129;BME280;31860;45.186;5.790;2023-11-19T03:39:12;99821.16;;;10.30;100.00
46129;BME280;31860;45.186;5.790;2023-11-19T03:41:37;99835.97;;;10.31;100.00
46129;BME280;31860;45.186;5.790;2023-11-19T03:44:03;99828.97;;;10.28;100.00
46129;BME280;31860;45.186;5.790;2023-11-19T03:46:28;99828.97;;;10.28;100.00
46129;BME280;31860;45.186;5.790;2023-11-19T03:48:55;99828.94;;;10.25;100.00
46129;BME280;31860;45.186;5.790;2023-11-19T03:51:20;99825.44;;;10.23;100.00
46129;BME280;31860;45.186;5.790;2023-11-19T03:53:46;99823.69;;;10.22;100.00
46129;BME280;31860;45.186;5.790;2023-11-19T03:56:12;99814.97;;;10.22;100.00
46129;BME280;31860;45.186;5.790;2023-11-19T03:58:38;99813.22;;;10.21;100.00
46129;BME280;31860;45.186;5.790;2023-11-19T04:01:11;99808.00;;;10.19;100.00
46129;BME280;31860;45.186;5.790;2023-11-19T04:03:37;99817.53;;;10.19;100.00
46129;BME280;31860;45.186;5.790;2023-11-19T04:06:03;99821.88;;;10.18;100.00
46129;BME280;31860;45.186;5.790;2023-11-19T04:08:29;99819.31;;;10.20;100.00
46129;BME280;31860;45.186;5.790;2023-11-19T04:10:54;99825.38;;;10.19;100.00
46129;BME280;31860;45.186;5.790;2023-11-19T04:13:19;99826.25;;;10.18;100.00
46129;BME280;31860;45.186;5.790;2023-11-19T04:15:45;99816.56;;;10.11;100.00
46129;BME280;31860;45.186;5.790;2023-11-19T04:18:10;99829.56;;;10.08;100.00
46129;BME280;31860;45.186;5.790;2023-11-19T04:20:35;99834.78;;;10.08;100.00
46129;BME280;31860;45.186;5.790;2023-11-19T04:23:01;99824.34;;;10.08;100.00
46129;BME280;31860;45.186;5.790;2023-11-19T04:25:27;99826.94;;;10.06;100.00
46129;BME280;31860;45.186;5.790;2023-11-19T04:27:52;99831.25;;;10.04;100.00
46129;BME280;31860;45.186;5.790;2023-11-19T04:30:18;99840.00;;;10.06;100.00
46129;BME280;31860;45.186;5.790;2023-11-19T04:32:44;99833.00;;;10.07;100.00
46129;BME280;31860;45.186;5.790;2023-11-19T04:35:09;99833.88;;;10.06;100.00
46129;BME280;31860;45.186;5.790;2023-11-19T04:37:36;99826.03;;;10.04;100.00
46129;BME280;31860;45.186;5.790;2023-11-19T04:40:01;99826.94;;;10.05;100.00
46129;BME280;31860;45.186;5.790;2023-11-19T04:42:27;99822.56;;;10.05;100.00
46129;BME280;31860;45.186;5.790;2023-11-19T04:44:52;99825.16;;;10.04;100.00
46129;BME280;31860;45.186;5.790;2023-11-19T04:47:17;99818.22;;;10.03;100.00
46129;BME280;31860;45.186;5.790;2023-11-19T04:49:43;99819.91;;;10.01;100.00
46129;BME280;31860;45.186;5.790;2023-11-19T04:52:08;99817.31;;;10.01;100.00
46129;BME280;31860;45.186;5.790;2023-11-19T04:54:34;99817.31;;;10.01;100.00
46129;BME280;31860;45.186;5.790;2023-11-19T04:56:59;99816.44;;;10.00;100.00
46129;BME280;31860;45.186;5.790;2023-11-19T04:59:25;99822.53;;;10.01;100.00
46129;BME280;31860;45.186;5.790;2023-11-19T05:01:50;99820.75;;;10.00;100.00
46129;BME280;31860;45.186;5.790;2023-11-19T05:04:16;99810.31;;;9.98;100.00
46129;BME280;31860;45.186;5.790;2023-11-19T05:06:41;99805.91;;;9.96;100.00
46129;BME280;31860;45.186;5.790;2023-11-19T05:09:06;99801.56;;;9.95;100.00
46129;BME280;31860;45.186;5.790;2023-11-19T05:11:35;99807.69;;;9.95;100.00
46129;BME280;31860;45.186;5.790;2023-11-19T05:14:02;99801.59;;;9.98;100.00
46129;BME280;31860;45.186;5.790;2023-11-19T05:16:29;99799.94;;;10.03;100.00
46129;BME280;31860;45.186;5.790;2023-11-19T05:18:54;99799.06;;;10.02;100.00
46129;BME280;31860;45.186;5.790;2023-11-19T05:21:19;99790.31;;;9.99;100.00
46129;BME280;31860;45.186;5.790;2023-11-19T05:23:45;99795.53;;;10.00;100.00
46129;BME280;31860;45.186;5.790;2023-11-19T05:26:21;99789.44;;;10.00;100.00
46129;BME280;31860;45.186;5.790;2023-11-19T05:28:47;99780.72;;;9.98;100.00
46129;BME280;31860;45.186;5.790;2023-11-19T05:31:13;99782.50;;;9.99;100.00
46129;BME280;31860;45.186;5.790;2023-11-19T05:33:38;99779.00;;;9.98;100.00
46129;BME280;31860;45.186;5.790;2023-11-19T05:36:05;99777.19;;;9.93;100.00
46129;BME280;31860;45.186;5.790;2023-11-19T05:38:30;99782.41;;;9.93;100.00
46129;BME280;31860;45.186;5.790;2023-11-19T05:40:56;99783.25;;;9.90;100.00
46129;BME280;31860;45.186;5.790;2023-11-19T05:43:21;99794.47;;;9.83;100.00
46129;BME280;31860;45.186;5.790;2023-11-19T05:45:49;99790.94;;;9.80;100.00
46129;BME280;31860;45.186;5.790;2023-11-19T05:48:15;99792.66;;;9.76;100.00
46129;BME280;31860;45.186;5.790;2023-11-19T05:50:40;99790.84;;;9.71;100.00
46129;BME280;31860;45.186;5.790;2023-11-19T05:53:05;99792.56;;;9.70;100.00
46129;BME280;31860;45.186;5.790;2023-11-19T05:55:34;99791.66;;;9.70;100.00
46129;BME280;31860;45.186;5.790;2023-11-19T05:58:00;99778.63;;;9.70;100.00
46129;BME280;31860;45.186;5.790;2023-11-19T06:00:25;99781.25;;;9.71;100.00
46129;BME280;31860;45.186;5.790;2023-11-19T06:02:52;99783.03;;;9.72;100.00
46129;BME280;31860;45.186;5.790;2023-11-19T06:05:17;99789.16;;;9.76;100.00
46129;BME280;31860;45.186;5.790;2023-11-19T06:07:43;99790.06;;;9.79;100.00
46129;BME280;31860;45.186;5.790;2023-11-19T06:10:09;99787.47;;;9.81;100.00
46129;BME280;31860;45.186;5.790;2023-11-19T06:12:36;99784.03;;;9.83;100.00
46129;BME280;31860;45.186;5.790;2023-11-19T06:15:05;99784.84;;;9.81;100.00
46129;BME280;31860;45.186;5.790;2023-11-19T06:17:31;99779.53;;;9.73;100.00
46129;BME280;31860;45.186;5.790;2023-11-19T06:19:56;99774.38;;;9.75;100.00
46129;BME280;31860;45.186;5.790;2023-11-19T06:22:22;99770.88;;;9.74;100.00
46129;BME280;31860;45.186;5.790;2023-11-19T06:24:47;99766.53;;;9.75;100.00
46129;BME280;31860;45.186;5.790;2023-11-19T06:27:13;99773.47;;;9.74;100.00
46129;BME280;31860;45.186;5.790;2023-11-19T06:29:38;99764.78;;;9.75;100.00
46129;BME280;31860;45.186;5.790;2023-11-19T06:32:06;99773.50;;;9.77;100.00
46129;BME280;31860;45.186;5.790;2023-11-19T06:34:31;99772.63;;;9.77;100.00
46129;BME280;31860;45.186;5.790;2023-11-19T06:36:58;99772.59;;;9.72;100.00
46129;BME280;31860;45.186;5.790;2023-11-19T06:39:23;99755.25;;;9.76;100.00
46129;BME280;31860;45.186;5.790;2023-11-19T06:41:48;99756.13;;;9.75;100.00
46129;BME280;31860;45.186;5.790;2023-11-19T06:44:14;99760.44;;;9.74;100.00
46129;BME280;31860;45.186;5.790;2023-11-19T06:46:40;99764.78;;;9.74;100.00
46129;BME280;31860;45.186;5.790;2023-11-19T06:49:05;99761.25;;;9.70;100.00
46129;BME280;31860;45.186;5.790;2023-11-19T06:51:33;99760.38;;;9.68;100.00
46129;BME280;31860;45.186;5.790;2023-11-19T06:53:58;99766.47;;;9.70;100.00
46129;BME280;31860;45.186;5.790;2023-11-19T06:56:25;99769.97;;;9.71;100.00
46129;BME280;31860;45.186;5.790;2023-11-19T06:58:51;99770.88;;;9.73;100.00
46129;BME280;31860;45.186;5.790;2023-11-19T07:01:16;99777.75;;;9.69;100.00
46129;BME280;31860;45.186;5.790;2023-11-19T07:03:44;99779.41;;;9.63;100.00
46129;BME280;31860;45.186;5.790;2023-11-19T07:06:10;99774.19;;;9.61;100.00
46129;BME280;31860;45.186;5.790;2023-11-19T07:08:35;99778.53;;;9.61;100.00
46129;BME280;31860;45.186;5.790;2023-11-19T07:11:02;99779.44;;;9.64;100.00
46129;BME280;31860;45.186;5.790;2023-11-19T07:13:28;99775.91;;;9.61;100.00
46129;BME280;31860;45.186;5.790;2023-11-19T07:15:56;99775.00;;;9.58;100.00
46129;BME280;31860;45.186;5.790;2023-11-19T07:18:21;99768.06;;;9.57;100.00
46129;BME280;31860;45.186;5.790;2023-11-19T07:20:49;99756.75;;;9.58;100.00
46129;BME280;31860;45.186;5.790;2023-11-19T07:23:15;99758.53;;;9.61;100.00
46129;BME280;31860;45.186;5.790;2023-11-19T07:25:44;99758.59;;;9.66;100.00
46129;BME280;31860;45.186;5.790;2023-11-19T07:28:12;99746.44;;;9.68;100.00
46129;BME280;31860;45.186;5.790;2023-11-19T07:30:37;99756.88;;;9.69;100.00
46129;BME280;31860;45.186;5.790;2023-11-19T07:33:03;99759.50;;;9.69;100.00
46129;BME280;31860;45.186;5.790;2023-11-19T07:35:29;99762.09;;;9.69;100.00
46129;BME280;31860;45.186;5.790;2023-11-19T07:37:56;99770.78;;;9.68;100.00
46129;BME280;31860;45.186;5.790;2023-11-19T07:40:22;99761.19;;;9.66;100.00
46129;BME280;31860;45.186;5.790;2023-11-19T07:42:48;99759.53;;;9.71;100.00
46129;BME280;31860;45.186;5.790;2023-11-19T07:45:13;99769.91;;;9.68;100.00
46129;BME280;31860;45.186;5.790;2023-11-19T07:47:39;99763.84;;;9.67;100.00
46129;BME280;31860;45.186;5.790;2023-11-19T07:50:05;99770.78;;;9.68;100.00
46129;BME280;31860;45.186;5.790;2023-11-19T07:52:30;99772.53;;;9.68;100.00
46129;BME280;31860;45.186;5.790;2023-11-19T07:54:55;99776.91;;;9.69;100.00
46129;BME280;31860;45.186;5.790;2023-11-19T07:57:21;99769.91;;;9.66;100.00
46129;BME280;31860;45.186;5.790;2023-11-19T07:59:46;99778.59;;;9.65;100.00
46129;BME280;31860;45.186;5.790;2023-11-19T08:02:12;99788.22;;;9.71;100.00
46129;BME280;31860;45.186;5.790;2023-11-19T08:04:37;99789.06;;;9.71;100.00
46129;BME280;31860;45.186;5.790;2023-11-19T08:07:05;99785.72;;;9.78;100.00
46129;BME280;31860;45.186;5.790;2023-11-19T08:09:30;99782.44;;;9.96;100.00
46129;BME280;31860;45.186;5.790;2023-11-19T08:11:56;99778.63;;;10.40;100.00
46129;BME280;31860;45.186;5.790;2023-11-19T08:14:21;99784.06;;;10.63;100.00
46129;BME280;31860;45.186;5.790;2023-11-19T08:16:46;99797.13;;;10.64;100.00
46129;BME280;31860;45.186;5.790;2023-11-19T08:19:12;99802.28;;;10.55;100.00
46129;BME280;31860;45.186;5.790;2023-11-19T08:21:37;99810.91;;;10.48;100.00
46129;BME280;31860;45.186;5.790;2023-11-19T08:24:03;99811.75;;;10.42;100.00
46129;BME280;31860;45.186;5.790;2023-11-19T08:26:29;99812.56;;;10.40;100.00
46129;BME280;31860;45.186;5.790;2023-11-19T08:28:54;99813.41;;;10.39;100.00
46129;BME280;31860;45.186;5.790;2023-11-19T08:31:19;99808.19;;;10.37;100.00
46129;BME280;31860;45.186;5.790;2023-11-19T08:33:45;99797.78;;;10.40;100.00
46129;BME280;31860;45.186;5.790;2023-11-19T08:36:15;99820.47;;;10.44;100.00
46129;BME280;31860;45.186;5.790;2023-11-19T08:38:42;99820.47;;;10.44;100.00
46129;BME280;31860;45.186;5.790;2023-11-19T08:41:07;99813.47;;;10.45;100.00
46129;BME280;31860;45.186;5.790;2023-11-19T08:43:32;99819.59;;;10.47;100.00
46129;BME280;31860;45.186;5.790;2023-11-19T08:45:57;99817.88;;;10.49;100.00
46129;BME280;31860;45.186;5.790;2023-11-19T08:48:23;99816.16;;;10.51;100.00
46129;BME280;31860;45.186;5.790;2023-11-19T08:50:48;99817.06;;;10.55;100.00
46129;BME280;31860;45.186;5.790;2023-11-19T08:53:14;99807.50;;;10.58;100.00
46129;BME280;31860;45.186;5.790;2023-11-19T08:55:39;99804.06;;;10.62;100.00
46129;BME280;31860;45.186;5.790;2023-11-19T08:58:04;99812.81;;;10.64;100.00
46129;BME280;31860;45.186;5.790;2023-11-19T09:00:30;99810.19;;;10.66;100.00
46129;BME280;31860;45.186;5.790;2023-11-19T09:02:57;99811.09;;;10.69;100.00
46129;BME280;31860;45.186;5.790;2023-11-19T09:05:23;99805.09;;;10.75;100.00
46129;BME280;31860;45.186;5.790;2023-11-19T09:07:48;99796.44;;;10.82;100.00
46129;BME280;31860;45.186;5.790;2023-11-19T09:10:15;99801.72;;;10.89;100.00
46129;BME280;31860;45.186;5.790;2023-11-19T09:12:40;99795.63;;;10.90;100.00
46129;BME280;31860;45.186;5.790;2023-11-19T09:15:05;99795.66;;;10.93;100.00
46129;BME280;31860;45.186;5.790;2023-11-19T09:17:31;99793.06;;;10.93;100.00
46129;BME280;31860;45.186;5.790;2023-11-19T09:19:57;99784.34;;;10.94;100.00
46129;BME280;31860;45.186;5.790;2023-11-19T09:22:22;99785.22;;;10.95;100.00
46129;BME280;31860;45.186;5.790;2023-11-19T09:24:47;99781.72;;;10.96;100.00
46129;BME280;31860;45.186;5.790;2023-11-19T09:27:13;99783.53;;;11.03;100.00
46129;BME280;31860;45.186;5.790;2023-11-19T09:29:38;99789.72;;;11.17;100.00
46129;BME280;31860;45.186;5.790;2023-11-19T09:32:04;99783.72;;;11.30;100.00
46129;BME280;31860;45.186;5.790;2023-11-19T09:34:29;99792.50;;;11.39;100.00
46129;BME280;31860;45.186;5.790;2023-11-19T09:36:55;99789.94;;;11.48;100.00
46129;BME280;31860;45.186;5.790;2023-11-19T09:39:20;99789.13;;;11.56;100.00
46129;BME280;31860;45.186;5.790;2023-11-19T09:41:46;99793.53;;;11.61;100.00
46129;BME280;31860;45.186;5.790;2023-11-19T09:44:12;99792.72;;;11.65;100.00
46129;BME280;31860;45.186;5.790;2023-11-19T09:46:38;99784.84;;;11.68;100.00
46129;BME280;31860;45.186;5.790;2023-11-19T09:49:06;99783.13;;;11.73;100.00
46129;BME280;31860;45.186;5.790;2023-11-19T09:51:34;99776.19;;;11.78;100.00
46129;BME280;31860;45.186;5.790;2023-11-19T09:54:00;99776.19;;;11.84;100.00
46129;BME280;31860;45.186;5.790;2023-11-19T09:56:27;99775.38;;;11.91;100.00
46129;BME280;31860;45.186;5.790;2023-11-19T09:58:54;99777.16;;;11.98;100.00
46129;BME280;31860;45.186;5.790;2023-11-19T10:01:20;99771.06;;;12.02;100.00
46129;BME280;31860;45.186;5.790;2023-11-19T10:03:47;99770.19;;;12.09;100.00
46129;BME280;31860;45.186;5.790;2023-11-19T10:06:14;99765.88;;;12.16;100.00
46129;BME280;31860;45.186;5.790;2023-11-19T10:08:41;99772.84;;;12.24;100.00
46129;BME280;31860;45.186;5.790;2023-11-19T10:11:07;99764.19;;;12.41;100.00
46129;BME280;31860;45.186;5.790;2023-11-19T10:13:36;99764.19;;;12.60;100.00
46129;BME280;31860;45.186;5.790;2023-11-19T10:16:09;99754.59;;;12.83;100.00
46129;BME280;31860;45.186;5.790;2023-11-19T10:18:36;99753.72;;;13.07;100.00
46129;BME280;31860;45.186;5.790;2023-11-19T10:21:04;99748.44;;;13.34;100.00
46129;BME280;31860;45.186;5.790;2023-11-19T10:23:30;99744.84;;;13.64;100.00
46129;BME280;31860;45.186;5.790;2023-11-19T10:26:02;99742.09;;;13.97;100.00
46129;BME280;31860;45.186;5.790;2023-11-19T10:28:39;99733.22;;;14.20;100.00
46129;BME280;31860;45.186;5.790;2023-11-19T10:31:05;99729.63;;;14.38;100.00
46129;BME280;31860;45.186;5.790;2023-11-19T10:33:30;99727.75;;;14.54;100.00
46129;BME280;31860;45.186;5.790;2023-11-19T10:35:57;99723.25;;;14.71;100.00
46129;BME280;31860;45.186;5.790;2023-11-19T10:38:24;99710.81;;;14.88;100.00
46129;BME280;31860;45.186;5.790;2023-11-19T10:40:51;99704.56;;;15.02;100.00
46129;BME280;31860;45.186;5.790;2023-11-19T10:43:20;99698.28;;;15.17;100.00
46129;BME280;31860;45.186;5.790;2023-11-19T10:45:49;99692.88;;;15.31;100.00
46129;BME280;31860;45.186;5.790;2023-11-19T10:48:15;99692.78;;;15.41;100.00
46129;BME280;31860;45.186;5.790;2023-11-19T10:50:41;99695.25;;;15.55;100.00
46129;BME280;31860;45.186;5.790;2023-11-19T10:53:09;99695.09;;;15.68;100.00
46129;BME280;31860;45.186;5.790;2023-11-19T10:55:36;99701.88;;;15.84;100.00
46129;BME280;31860;45.186;5.790;2023-11-19T10:58:05;99687.66;;;15.97;100.00
46129;BME280;31860;45.186;5.790;2023-11-19T11:00:57;99690.03;;;16.14;100.00
46129;BME280;31860;45.186;5.790;2023-11-19T11:03:26;99688.06;;;16.30;100.00
46129;BME280;31860;45.186;5.790;2023-11-19T11:05:55;99682.63;;;16.42;100.00
46129;BME280;31860;45.186;5.790;2023-11-19T11:08:21;99682.41;;;16.57;100.00
46129;BME280;31860;45.186;5.790;2023-11-19T11:10:57;99685.66;;;16.71;100.00
46129;BME280;31860;45.186;5.790;2023-11-19T11:13:26;99685.47;;;16.83;100.00
46129;BME280;31860;45.186;5.790;2023-11-19T11:15:56;99682.53;;;16.99;100.00
46129;BME280;31860;45.186;5.790;2023-11-19T11:18:24;99672.56;;;17.15;100.00
46129;BME280;31860;45.186;5.790;2023-11-19T11:20:54;99672.22;;;17.33;100.00
46129;BME280;31860;45.186;5.790;2023-11-19T11:28:46;99656.41;;;17.76;100.00
46129;BME280;31860;45.186;5.790;2023-11-19T11:31:51;99660.56;;;17.86;100.00
46129;BME280;31860;45.186;5.790;2023-11-19T11:36:57;99652.00;;;18.15;100.00
46129;BME280;31860;45.186;5.790;2023-11-19T11:39:28;99658.81;;;18.25;100.00
46129;BME280;31860;45.186;5.790;2023-11-19T11:45:09;99665.22;;;18.53;96.13
46129;BME280;31860;45.186;5.790;2023-11-19T11:50:11;99650.56;;;18.73;94.75
46129;BME280;31860;45.186;5.790;2023-11-19T11:57:57;99647.50;;;18.90;94.82
46129;BME280;31860;45.186;5.790;2023-11-19T12:00:33;99644.63;;;18.98;93.56
46129;BME280;31860;45.186;5.790;2023-11-19T12:03:04;99643.75;;;18.99;94.10
46129;BME280;31860;45.186;5.790;2023-11-19T12:05:30;99643.28;;;19.15;94.47
46129;BME280;31860;45.186;5.790;2023-11-19T12:08:04;99639.38;;;19.28;91.84
46129;BME280;31860;45.186;5.790;2023-11-19T12:10:32;99636.19;;;19.48;91.48
46129;BME280;31860;45.186;5.790;2023-11-19T12:12:58;99634.84;;;19.64;89.27
46129;BME280;31860;45.186;5.790;2023-11-19T12:15:25;99627.72;;;19.66;88.02
46129;BME280;31860;45.186;5.790;2023-11-19T12:17:52;99630.66;;;19.57;84.97
46129;BME280;31860;45.186;5.790;2023-11-19T12:20:19;99620.13;;;19.54;85.65
46129;BME280;31860;45.186;5.790;2023-11-19T12:22:46;99620.13;;;19.54;86.71
46129;BME280;31860;45.186;5.790;2023-11-19T12:25:14;99615.34;;;19.65;84.99
46129;BME280;31860;45.186;5.790;2023-11-19T12:27:44;99617.44;;;19.84;83.22
46129;BME280;31860;45.186;5.790;2023-11-19T12:30:09;99607.94;;;20.05;82.98
46129;BME280;31860;45.186;5.790;2023-11-19T12:32:42;99610.75;;;20.28;80.86
46129;BME280;31860;45.186;5.790;2023-11-19T12:35:09;99603.00;;;20.48;79.38
46129;BME280;31860;45.186;5.790;2023-11-19T12:37:42;99594.56;;;20.62;76.09
46129;BME280;31860;45.186;5.790;2023-11-19T12:40:18;99586.09;;;20.77;73.70
46129;BME280;31860;45.186;5.790;2023-11-19T12:42:44;99582.75;;;20.95;75.20
46129;BME280;31860;45.186;5.790;2023-11-19T12:45:10;99592.72;;;21.15;74.21
46129;BME280;31860;45.186;5.790;2023-11-19T12:47:37;99584.88;;;21.35;72.61
46129;BME280;31860;45.186;5.790;2023-11-19T12:50:02;99580.50;;;21.57;71.51
46129;BME280;31860;45.186;5.790;2023-11-19T12:52:29;99580.69;;;21.74;69.46
46129;BME280;31860;45.186;5.790;2023-11-19T12:54:54;99578.03;;;21.97;67.28
46129;BME280;31860;45.186;5.790;2023-11-19T12:57:21;99574.66;;;22.15;65.96
46129;BME280;31860;45.186;5.790;2023-11-19T12:59:55;99564.59;;;22.43;63.74
46129;BME280;31860;45.186;5.790;2023-11-19T13:02:22;99576.91;;;22.68;63.73
46129;BME280;31860;45.186;5.790;2023-11-19T13:04:48;99586.50;;;22.92;62.37
46129;BME280;31860;45.186;5.790;2023-11-19T13:07:20;99572.56;;;23.05;58.56
46129;BME280;31860;45.186;5.790;2023-11-19T13:09:45;99574.41;;;23.23;59.24
46129;BME280;31860;45.186;5.790;2023-11-19T13:12:13;99573.53;;;23.43;58.37